Suma — JM6252 — position and weather

sailwx.info

Track history (hours):
 
Tides and Currents Weather Stations Pressure Air Temp Water Temp Dewpoint Dewpoint Depression Visibility Wind Speed Wind Dir Waves Ship Positions

Suma

Last reported at 2018-Mar-30 22:00 UTC. Time now 2018-Jun-20 22:41 UTC.
Position N 34°26' E 134°09'.
Warning: this ship's position is months out of date.

Length 80 m; draft 4.5 m.

Type: Cargo ship. MMSI: 431600127.

Date/timePositionNaut miles runAvg speedWind from/ knotsBaromVisibWave heightAir tempDewpointWater temp
2018-Mar-30 22:00N 34°26' E 134°09'611.8
2018-Mar-30 21:30N 34°25' E 134°15'612.0
2018-Mar-30 21:00N 34°26' E 134°23'611.9
2018-Mar-30 20:30N 34°28' E 134°29'611.7
2018-Mar-30 20:01N 34°30' E 134°36'611.8
2018-Mar-30 19:30N 34°32' E 134°43'611.3
2018-Mar-30 19:01N 34°34' E 134°49'510.3
2018-Mar-30 18:30N 34°36' E 134°55'5 9.2
2018-Mar-30 18:00N 34°37' E 135°00'4 7.2
2018-Mar-30 17:30N 34°36' E 135°04'510.2
2018-Mar-30 17:00N 34°36' E 135°10'4 8.0
2018-Mar-30 16:30N 34°37' E 135°15'0 0.0
2018-Mar-30 16:00N 34°37' E 135°15'0 0.0
2018-Mar-30 15:30N 34°37' E 135°15'0 0.0
2018-Mar-30 15:00N 34°37' E 135°15'0 0.0
2018-Mar-30 14:30N 34°37' E 135°15'0 0.0
2018-Mar-30 14:00N 34°37' E 135°15'0 0.0
2018-Mar-30 13:30N 34°37' E 135°15'0 0.0
2018-Mar-30 13:00N 34°37' E 135°15'0 0.0
2018-Mar-30 12:30N 34°37' E 135°15'0 0.0
2018-Mar-30 12:00N 34°37' E 135°15'0 0.0
2018-Mar-30 11:27N 34°37' E 135°15'0 0.0
2018-Mar-30 11:00N 34°37' E 135°15'2 4.1
2018-Mar-30 10:30N 34°38' E 135°16'1 2.7
2018-Mar-30 10:00N 34°39' E 135°15'0 0.0
2018-Mar-30 09:28N 34°39' E 135°15'0 0.0
2018-Mar-30 08:58N 34°39' E 135°15'0 0.0
2018-Mar-30 08:28N 34°39' E 135°15'0 0.1
2018-Mar-30 07:58N 34°39' E 135°15'0 0.0
2018-Mar-30 07:28N 34°39' E 135°15'0 0.0
2018-Mar-30 07:00N 34°39' E 135°15'2 5.0
2018-Mar-30 06:30N 34°37' E 135°17'0 0.6
2018-Mar-30 06:00N 34°37' E 135°17'0 0.0
2018-Mar-30 05:30N 34°37' E 135°17'0 0.0
2018-Mar-30 05:00N 34°37' E 135°17'0 0.0
2018-Mar-30 04:30N 34°37' E 135°17'0 0.0
2018-Mar-30 04:00N 34°37' E 135°17'0 0.0
2018-Mar-30 03:30N 34°37' E 135°17'0 0.0
2018-Mar-30 03:00N 34°37' E 135°17'2 5.1
2018-Mar-30 02:30N 34°40' E 135°18'2 3.3
2018-Mar-30 02:01N 34°41' E 135°17'2 4.6
2018-Mar-30 01:30N 34°39' E 135°15'0 0.1
2018-Mar-30 01:01N 34°39' E 135°15'0 0.7
2018-Mar-30 00:30N 34°39' E 135°15'2 3.6
2018-Mar-30 00:01N 34°41' E 135°15'0 0.0
2018-Mar-29 23:30N 34°41' E 135°15'3 5.6
2018-Mar-29 23:00N 34°38' E 135°16'1 2.6
2018-Mar-29 22:31N 34°37' E 135°16'0 0.0
2018-Mar-29 22:00N 34°37' E 135°16'0 0.0
2018-Mar-29 21:30N 34°37' E 135°16'0 0.0
2018-Mar-29 21:00N 34°37' E 135°16'0 0.0
2018-Mar-29 20:30N 34°37' E 135°16'0 0.0
2018-Mar-29 20:00N 34°37' E 135°16'0 0.0
2018-Mar-29 19:30N 34°37' E 135°16'0 0.0
2018-Mar-29 19:00N 34°37' E 135°16'0 0.0
2018-Mar-29 18:30N 34°37' E 135°16'0 0.0
2018-Mar-29 18:00N 34°37' E 135°16'0 0.0
2018-Mar-29 17:30N 34°37' E 135°16'0 0.0
2018-Mar-29 17:00N 34°37' E 135°16'4 8.4
2018-Mar-29 16:30N 34°35' E 135°11'510.9
2018-Mar-29 16:00N 34°35' E 135°05'713.2
2018-Mar-29 15:30N 34°36' E 134°57'613.0
2018-Mar-29 15:00N 34°33' E 134°50'511.0
2018-Mar-29 14:30N 34°31' E 134°44'510.9
2018-Mar-29 14:00N 34°29' E 134°38'511.0
2018-Mar-29 13:30N 34°27' E 134°31'610.8
2018-Mar-29 13:00N 34°25' E 134°25'510.5
2018-Mar-29 12:30N 34°24' E 134°19'13 0.6
2018-Mar-28 16:19N 34°27' E 134°04'510.3
2018-Mar-28 15:52N 34°26' E 134°09'4 9.7
2018-Mar-28 15:30N 34°25' E 134°13'5 9.8
2018-Mar-28 15:00N 34°25' E 134°19'510.7
2018-Mar-28 14:30N 34°26' E 134°25'510.6
2018-Mar-28 14:01N 34°28' E 134°31'510.7
2018-Mar-28 13:30N 34°30' E 134°37'510.5
2018-Mar-28 13:01N 34°32' E 134°43'611.0
2018-Mar-28 12:30N 34°34' E 134°49'611.3
2018-Mar-28 12:00N 34°36' E 134°56'611.2
2018-Mar-28 11:30N 34°37' E 135°02'510.6
2018-Mar-28 11:00N 34°36' E 135°09'611.2
2018-Mar-28 10:30N 34°36' E 135°16'510.8
2018-Mar-28 10:00N 34°38' E 135°22'3 5.1
2018-Mar-28 09:30N 34°38' E 135°25'0 0.0
2018-Mar-28 09:00N 34°38' E 135°25'0 0.2
2018-Mar-28 08:30N 34°37' E 135°25'0 0.7
2018-Mar-28 08:00N 34°37' E 135°25'3 5.8
2018-Mar-28 07:30N 34°37' E 135°21'3 5.7
2018-Mar-28 07:00N 34°37' E 135°18'4 8.0
2018-Mar-28 06:30N 34°40' E 135°14'0 0.0
2018-Mar-28 06:00N 34°40' E 135°14'2 4.2
2018-Mar-28 05:30N 34°39' E 135°16'510.0
2018-Mar-28 05:00N 34°39' E 135°22'3 5.9
2018-Mar-28 04:30N 34°39' E 135°26'0 0.0
2018-Mar-28 04:00N 34°39' E 135°26'1 2.4
2018-Mar-28 03:30N 34°39' E 135°24'5 9.6
2018-Mar-28 03:00N 34°36' E 135°19'5 9.2
2018-Mar-28 02:30N 34°39' E 135°15'0 0.1
2018-Mar-28 02:00N 34°39' E 135°15'1 1.1
2018-Mar-28 01:30N 34°40' E 135°15'2 3.6
2018-Mar-28 01:00N 34°41' E 135°17'0 0.8
2018-Mar-28 00:30N 34°41' E 135°16'3 5.7
2018-Mar-28 00:00N 34°39' E 135°19'0 0.4
2018-Mar-27 23:27N 34°39' E 135°19'0 0.0
2018-Mar-27 23:00N 34°39' E 135°19'0 0.0
2018-Mar-27 22:30N 34°39' E 135°19'0 0.0
2018-Mar-27 22:00N 34°39' E 135°19'0 0.0
2018-Mar-27 21:30N 34°39' E 135°19'0 0.1
2018-Mar-27 21:00N 34°39' E 135°19'0 0.1
2018-Mar-27 20:30N 34°39' E 135°19'0 0.0
2018-Mar-27 20:00N 34°39' E 135°19'0 0.0
2018-Mar-27 19:30N 34°39' E 135°19'0 0.0
2018-Mar-27 19:00N 34°39' E 135°19'0 0.0
2018-Mar-27 18:30N 34°39' E 135°19'0 0.0
2018-Mar-27 18:00N 34°39' E 135°19'0 0.0
2018-Mar-27 17:30N 34°39' E 135°19'3 5.9
2018-Mar-27 17:00N 34°37' E 135°17'510.0
2018-Mar-27 16:30N 34°35' E 135°11'611.3
2018-Mar-27 16:00N 34°35' E 135°04'612.1
2018-Mar-27 15:30N 34°36' E 134°57'612.9
2018-Mar-27 15:01N 34°34' E 134°50'611.6
2018-Mar-27 14:31N 34°31' E 134°43'611.2
2018-Mar-27 14:00N 34°29' E 134°37'611.1
2018-Mar-27 13:30N 34°27' E 134°31'611.1
2018-Mar-27 12:58N 34°25' E 134°24'510.6
2018-Mar-27 12:30N 34°24' E 134°18'611.3
2018-Mar-27 12:00N 34°25' E 134°11'2 0.1
2018-Mar-26 12:29N 34°26' E 134°09'5 9.9
2018-Mar-26 12:00N 34°24' E 134°14'510.8
2018-Mar-26 11:30N 34°25' E 134°21'611.2
2018-Mar-26 11:00N 34°27' E 134°27'510.9
2018-Mar-26 10:30N 34°29' E 134°33'511.0
2018-Mar-26 10:00N 34°31' E 134°40'611.3
2018-Mar-26 09:30N 34°33' E 134°46'611.9
2018-Mar-26 09:00N 34°35' E 134°53'612.1
2018-Mar-26 08:30N 34°37' E 134°60'611.6
2018-Mar-26 08:00N 34°36' E 135°07'611.2
2018-Mar-26 07:30N 34°37' E 135°13'3 5.5
2018-Mar-26 07:01N 34°40' E 135°14'0 0.2
2018-Mar-26 06:30N 34°40' E 135°14'0 0.0
2018-Mar-26 06:00N 34°40' E 135°14'2 4.5
2018-Mar-26 05:30N 34°39' E 135°16'5 9.3
2018-Mar-26 05:00N 34°37' E 135°22'3 5.3
2018-Mar-26 04:30N 34°38' E 135°25'0 0.0
2018-Mar-26 04:00N 34°38' E 135°25'2 3.1
2018-Mar-26 03:31N 34°38' E 135°23'4 8.0
2018-Mar-26 03:00N 34°36' E 135°19'4 7.1
2018-Mar-26 02:30N 34°37' E 135°14'0 0.1
2018-Mar-26 01:58N 34°37' E 135°14'0 0.0
2018-Mar-26 01:28N 34°37' E 135°14'0 0.0
2018-Mar-26 00:58N 34°37' E 135°14'0 0.0
2018-Mar-26 00:28N 34°37' E 135°14'0 0.0
2018-Mar-25 23:58N 34°37' E 135°14'0 0.0
2018-Mar-25 23:28N 34°37' E 135°14'0 0.0
2018-Mar-25 23:00N 34°37' E 135°14'0 0.0
2018-Mar-25 22:30N 34°37' E 135°14'4 7.4
2018-Mar-25 21:59N 34°40' E 135°11'1 2.5
2018-Mar-25 21:30N 34°41' E 135°12'0 0.0
2018-Mar-25 21:00N 34°41' E 135°12'0 0.0
2018-Mar-25 20:30N 34°41' E 135°12'0 0.0
2018-Mar-25 20:00N 34°41' E 135°12'0 0.0
2018-Mar-25 19:30N 34°41' E 135°12'0 0.0
2018-Mar-25 19:00N 34°41' E 135°12'0 0.0
2018-Mar-25 18:30N 34°41' E 135°12'0 0.0
2018-Mar-25 18:00N 34°41' E 135°12'0 0.0
2018-Mar-25 17:30N 34°41' E 135°12'0 0.0
2018-Mar-25 16:57N 34°41' E 135°12'0 0.0
2018-Mar-25 16:30N 34°41' E 135°12'0 0.0
2018-Mar-25 16:00N 34°41' E 135°12'0 0.0
2018-Mar-25 15:30N 34°41' E 135°12'0 0.0
2018-Mar-25 15:00N 34°41' E 135°12'0 0.0
2018-Mar-25 14:30N 34°41' E 135°12'0 0.0
2018-Mar-25 14:00N 34°41' E 135°12'0 0.0
2018-Mar-25 13:30N 34°41' E 135°12'0 0.0
2018-Mar-25 13:00N 34°41' E 135°12'0 0.0
2018-Mar-25 12:30N 34°41' E 135°12'0 0.0
2018-Mar-25 12:00N 34°41' E 135°12'0 0.0
2018-Mar-25 11:30N 34°41' E 135°12'0 0.0
2018-Mar-25 11:00N 34°41' E 135°12'0 0.0
2018-Mar-25 10:30N 34°41' E 135°12'0 0.0
2018-Mar-25 10:00N 34°41' E 135°12'0 0.0
2018-Mar-25 09:30N 34°41' E 135°12'0 0.0
2018-Mar-25 09:00N 34°41' E 135°12'0 0.0
2018-Mar-25 08:30N 34°41' E 135°12'0 0.0
2018-Mar-25 08:00N 34°41' E 135°12'0 0.0
2018-Mar-25 07:30N 34°41' E 135°12'0 0.0
2018-Mar-25 07:00N 34°41' E 135°12'0 0.0
2018-Mar-25 06:30N 34°41' E 135°12'0 0.0
2018-Mar-25 06:00N 34°41' E 135°12'0 0.0
2018-Mar-25 05:30N 34°41' E 135°12'0 0.0
2018-Mar-25 05:00N 34°41' E 135°12'0 0.0
2018-Mar-25 04:30N 34°41' E 135°12'0 0.0
2018-Mar-25 04:00N 34°41' E 135°12'0 0.0
2018-Mar-25 03:30N 34°41' E 135°12'0 0.0
2018-Mar-25 03:00N 34°41' E 135°12'0 0.0
2018-Mar-25 02:30N 34°41' E 135°12'0 0.0
2018-Mar-25 02:00N 34°41' E 135°12'0 0.0
2018-Mar-25 01:30N 34°41' E 135°12'0 0.0
2018-Mar-25 01:00N 34°41' E 135°12'0 0.0
2018-Mar-25 00:30N 34°41' E 135°12'0 0.0
2018-Mar-25 00:00N 34°41' E 135°12'0 0.0
2018-Mar-24 23:30N 34°41' E 135°12'0 0.0
2018-Mar-24 23:00N 34°41' E 135°12'0 0.0
2018-Mar-24 22:30N 34°41' E 135°12'0 0.0
2018-Mar-24 22:00N 34°41' E 135°12'0 0.0
2018-Mar-24 21:30N 34°41' E 135°12'0 0.0
2018-Mar-24 21:00N 34°41' E 135°12'0 0.0
2018-Mar-24 20:30N 34°41' E 135°12'0 0.0
2018-Mar-24 20:00N 34°41' E 135°12'0 0.0
2018-Mar-24 19:30N 34°41' E 135°12'0 0.0
2018-Mar-24 19:00N 34°41' E 135°12'0 0.0
2018-Mar-24 18:30N 34°41' E 135°12'0 0.0
2018-Mar-24 18:00N 34°41' E 135°12'0 0.0
2018-Mar-24 17:30N 34°41' E 135°12'0 0.0
2018-Mar-24 17:00N 34°41' E 135°12'0 0.0
2018-Mar-24 16:30N 34°41' E 135°12'0 0.0
2018-Mar-24 16:00N 34°41' E 135°12'0 0.0
2018-Mar-24 15:30N 34°41' E 135°12'0 0.0
2018-Mar-24 15:00N 34°41' E 135°12'0 0.0
2018-Mar-24 14:30N 34°41' E 135°12'0 0.0
2018-Mar-24 14:00N 34°41' E 135°12'0 0.0
2018-Mar-24 13:30N 34°41' E 135°12'0 0.0
2018-Mar-24 13:00N 34°41' E 135°12'0 0.0
2018-Mar-24 12:30N 34°41' E 135°12'0 0.0
2018-Mar-24 12:00N 34°41' E 135°12'0 0.0
2018-Mar-24 11:30N 34°41' E 135°12'0 0.0
2018-Mar-24 11:00N 34°41' E 135°12'0 0.0
2018-Mar-24 10:30N 34°41' E 135°12'0 0.0
2018-Mar-24 10:00N 34°41' E 135°12'0 0.0
2018-Mar-24 09:30N 34°41' E 135°12'0 0.0
2018-Mar-24 09:00N 34°41' E 135°12'0 0.0
2018-Mar-24 08:27N 34°41' E 135°12'0 0.0
2018-Mar-24 08:00N 34°41' E 135°12'0 0.0
2018-Mar-24 07:30N 34°41' E 135°12'0 0.0
2018-Mar-24 07:00N 34°41' E 135°12'0 0.0
2018-Mar-24 06:30N 34°41' E 135°12'0 0.0
2018-Mar-24 06:00N 34°41' E 135°12'0 0.1
2018-Mar-24 05:30N 34°41' E 135°12'2 4.3
2018-Mar-24 05:00N 34°39' E 135°11'4 7.6
2018-Mar-24 04:30N 34°38' E 135°16'1 3.0
2018-Mar-24 04:00N 34°39' E 135°15'0 0.0
2018-Mar-24 03:31N 34°39' E 135°15'0 0.0
2018-Mar-24 03:01N 34°39' E 135°15'0 0.0
2018-Mar-24 02:30N 34°39' E 135°15'0 0.0
2018-Mar-24 02:00N 34°39' E 135°15'3 6.2
2018-Mar-24 01:31N 34°38' E 135°18'510.5
2018-Mar-24 01:01N 34°39' E 135°24'2 3.7
2018-Mar-24 00:30N 34°38' E 135°26'0 0.0
2018-Mar-24 00:00N 34°38' E 135°26'0 0.0
2018-Mar-23 23:30N 34°38' E 135°26'1 1.1
2018-Mar-23 23:00N 34°39' E 135°26'4 7.4
2018-Mar-23 22:31N 34°37' E 135°22'3 5.5
2018-Mar-23 22:00N 34°36' E 135°19'3 6.2
2018-Mar-23 21:30N 34°39' E 135°16'4 7.8
2018-Mar-23 21:00N 34°41' E 135°12'0 0.0
2018-Mar-23 20:30N 34°41' E 135°12'0 0.0
2018-Mar-23 20:00N 34°41' E 135°12'0 0.0
2018-Mar-23 19:30N 34°41' E 135°12'0 0.0
2018-Mar-23 19:00N 34°41' E 135°12'0 0.0
2018-Mar-23 18:30N 34°41' E 135°12'0 0.0
2018-Mar-23 18:00N 34°41' E 135°12'0 0.0
2018-Mar-23 17:30N 34°41' E 135°12'0 0.0
2018-Mar-23 17:00N 34°41' E 135°12'0 0.0
2018-Mar-23 16:30N 34°41' E 135°12'0 0.0
2018-Mar-23 16:00N 34°41' E 135°12'0 0.0
2018-Mar-23 15:30N 34°41' E 135°12'0 0.0
2018-Mar-23 15:00N 34°41' E 135°12'0 0.0
2018-Mar-23 14:30N 34°41' E 135°12'0 0.0
2018-Mar-23 14:00N 34°41' E 135°12'0 0.0
2018-Mar-23 13:30N 34°41' E 135°12'0 0.0
2018-Mar-23 13:00N 34°41' E 135°12'0 0.0
2018-Mar-23 12:30N 34°41' E 135°12'0 0.0
2018-Mar-23 12:00N 34°41' E 135°12'0 0.0
2018-Mar-23 11:30N 34°41' E 135°12'0 0.0
2018-Mar-23 11:00N 34°41' E 135°12'0 0.0
2018-Mar-23 10:30N 34°41' E 135°12'0 0.0
2018-Mar-23 10:00N 34°41' E 135°12'0 0.0
2018-Mar-23 09:30N 34°41' E 135°12'0 0.0
2018-Mar-23 09:00N 34°41' E 135°12'0 0.0
2018-Mar-23 08:30N 34°41' E 135°12'0 0.0
2018-Mar-23 08:00N 34°41' E 135°12'0 0.0
2018-Mar-23 07:30N 34°41' E 135°12'0 0.0
2018-Mar-23 07:00N 34°41' E 135°12'0 0.0
2018-Mar-23 06:30N 34°41' E 135°12'0 0.0
2018-Mar-23 06:00N 34°41' E 135°12'0 0.0
2018-Mar-23 05:30N 34°41' E 135°12'0 0.0
2018-Mar-23 05:00N 34°41' E 135°12'0 0.0
2018-Mar-23 04:30N 34°41' E 135°12'0 0.4
2018-Mar-23 04:00N 34°41' E 135°13'4 8.8
2018-Mar-23 03:30N 34°38' E 135°17'1 1.1
2018-Mar-23 02:58N 34°37' E 135°17'0 0.2
2018-Mar-23 02:30N 34°37' E 135°16'3 5.2
2018-Mar-23 02:00N 34°40' E 135°18'2 3.2
2018-Mar-23 01:30N 34°41' E 135°17'2 4.8
2018-Mar-23 01:00N 34°39' E 135°15'0 0.0
2018-Mar-23 00:30N 34°39' E 135°15'0 0.2
2018-Mar-23 00:00N 34°39' E 135°15'2 3.0
2018-Mar-22 23:30N 34°38' E 135°16'1 2.0
2018-Mar-22 23:00N 34°37' E 135°16'0 0.0
2018-Mar-22 22:30N 34°37' E 135°16'0 0.0
2018-Mar-22 22:00N 34°37' E 135°16'0 0.0
2018-Mar-22 21:30N 34°37' E 135°16'0 0.0
2018-Mar-22 21:00N 34°37' E 135°16'0 0.0
2018-Mar-22 20:30N 34°37' E 135°16'0 0.0
2018-Mar-22 20:00N 34°37' E 135°16'0 0.0
2018-Mar-22 19:30N 34°37' E 135°16'0 0.0
2018-Mar-22 19:00N 34°37' E 135°16'0 0.0
2018-Mar-22 18:30N 34°37' E 135°16'0 0.0
2018-Mar-22 18:00N 34°37' E 135°16'0 0.0
2018-Mar-22 17:30N 34°37' E 135°16'0 0.0
2018-Mar-22 17:00N 34°37' E 135°16'0 0.1
2018-Mar-22 16:30N 34°37' E 135°16'3 5.8
2018-Mar-22 16:00N 34°35' E 135°13'510.7
2018-Mar-22 15:30N 34°35' E 135°06'4 8.5
2018-Mar-22 15:00N 34°37' E 135°02'4 7.3
2018-Mar-22 14:30N 34°36' E 134°57'4 8.3
2018-Mar-22 14:00N 34°35' E 134°53'4 8.6
2018-Mar-22 13:30N 34°33' E 134°48'510.1
2018-Mar-22 13:00N 34°31' E 134°42'510.4
2018-Mar-22 12:31N 34°29' E 134°36'510.6
2018-Mar-22 12:00N 34°27' E 134°30'610.8
2018-Mar-22 11:29N 34°25' E 134°24'13 0.6
2018-Mar-21 14:04N 34°26' E 134°09'412.7
2018-Mar-21 13:46N 34°24' E 134°13'312.2
2018-Mar-21 13:29N 34°24' E 134°17'611.8
2018-Mar-21 13:00N 34°26' E 134°24'611.4
2018-Mar-21 12:30N 34°28' E 134°30'611.3
2018-Mar-21 12:00N 34°30' E 134°37'611.6
2018-Mar-21 11:30N 34°32' E 134°43'611.6
2018-Mar-21 11:00N 34°34' E 134°50'611.5
2018-Mar-21 10:30N 34°36' E 134°56'5 9.3
2018-Mar-21 10:00N 34°37' E 135°02'510.5
2018-Mar-21 09:30N 34°37' E 135°08'511.2
2018-Mar-21 09:00N 34°38' E 135°15'2 4.9
2018-Mar-21 08:30N 34°40' E 135°14'0 0.0
2018-Mar-21 08:00N 34°40' E 135°14'0 0.2
2018-Mar-21 07:30N 34°40' E 135°14'4 7.0
2018-Mar-21 07:00N 34°38' E 135°18'5 9.8
2018-Mar-21 06:30N 34°38' E 135°23'1 2.4
2018-Mar-21 06:00N 34°38' E 135°25'0 0.0
2018-Mar-21 05:30N 34°38' E 135°25'2 4.5
2018-Mar-21 05:00N 34°38' E 135°22'4 7.2
2018-Mar-21 04:30N 34°37' E 135°18'3 6.2
2018-Mar-21 04:00N 34°39' E 135°15'0 0.0
2018-Mar-21 03:30N 34°39' E 135°15'0 0.0
2018-Mar-21 03:00N 34°39' E 135°15'0 0.0
2018-Mar-21 02:30N 34°39' E 135°15'0 0.7
2018-Mar-21 02:00N 34°39' E 135°15'2 4.0
2018-Mar-21 01:30N 34°41' E 135°17'0 0.0
2018-Mar-21 01:00N 34°41' E 135°17'0 0.9
2018-Mar-21 00:30N 34°41' E 135°16'2 3.5
2018-Mar-21 00:00N 34°40' E 135°14'0 0.0
2018-Mar-20 23:29N 34°40' E 135°14'1 3.1
2018-Mar-20 23:00N 34°39' E 135°16'2 3.3
2018-Mar-20 22:29N 34°37' E 135°16'  
Track history (hours):
 
Tides and Currents Weather Stations Pressure Air Temp Water Temp Dewpoint Dewpoint Depression Visibility Wind Speed Wind Dir Waves Ship Positions

Suma

Last reported at 2018-Mar-30 22:00 UTC. Time now 2018-Jun-20 22:41 UTC.
Position N 34°26' E 134°09'.
Warning: this ship's position is months out of date.

Length 80 m; draft 4.5 m.

Type: Cargo ship. MMSI: 431600127.

Date/timePositionNaut miles runAvg speedWind from/ knotsBaromVisibWave heightAir tempDewpointWater temp
2018-Mar-30 22:00N 34°26' E 134°09'611.8
2018-Mar-30 21:30N 34°25' E 134°15'612.0
2018-Mar-30 21:00N 34°26' E 134°23'611.9
2018-Mar-30 20:30N 34°28' E 134°29'611.7
2018-Mar-30 20:01N 34°30' E 134°36'611.8
2018-Mar-30 19:30N 34°32' E 134°43'611.3
2018-Mar-30 19:01N 34°34' E 134°49'510.3
2018-Mar-30 18:30N 34°36' E 134°55'5 9.2
2018-Mar-30 18:00N 34°37' E 135°00'4 7.2
2018-Mar-30 17:30N 34°36' E 135°04'510.2
2018-Mar-30 17:00N 34°36' E 135°10'4 8.0
2018-Mar-30 16:30N 34°37' E 135°15'0 0.0
2018-Mar-30 16:00N 34°37' E 135°15'0 0.0
2018-Mar-30 15:30N 34°37' E 135°15'0 0.0
2018-Mar-30 15:00N 34°37' E 135°15'0 0.0
2018-Mar-30 14:30N 34°37' E 135°15'0 0.0
2018-Mar-30 14:00N 34°37' E 135°15'0 0.0
2018-Mar-30 13:30N 34°37' E 135°15'0 0.0
2018-Mar-30 13:00N 34°37' E 135°15'0 0.0
2018-Mar-30 12:30N 34°37' E 135°15'0 0.0
2018-Mar-30 12:00N 34°37' E 135°15'0 0.0
2018-Mar-30 11:27N 34°37' E 135°15'0 0.0
2018-Mar-30 11:00N 34°37' E 135°15'2 4.1
2018-Mar-30 10:30N 34°38' E 135°16'1 2.7
2018-Mar-30 10:00N 34°39' E 135°15'0 0.0
2018-Mar-30 09:28N 34°39' E 135°15'0 0.0
2018-Mar-30 08:58N 34°39' E 135°15'0 0.0
2018-Mar-30 08:28N 34°39' E 135°15'0 0.1
2018-Mar-30 07:58N 34°39' E 135°15'0 0.0
2018-Mar-30 07:28N 34°39' E 135°15'0 0.0
2018-Mar-30 07:00N 34°39' E 135°15'2 5.0
2018-Mar-30 06:30N 34°37' E 135°17'0 0.6
2018-Mar-30 06:00N 34°37' E 135°17'0 0.0
2018-Mar-30 05:30N 34°37' E 135°17'0 0.0
2018-Mar-30 05:00N 34°37' E 135°17'0 0.0
2018-Mar-30 04:30N 34°37' E 135°17'0 0.0
2018-Mar-30 04:00N 34°37' E 135°17'0 0.0
2018-Mar-30 03:30N 34°37' E 135°17'0 0.0
2018-Mar-30 03:00N 34°37' E 135°17'2 5.1
2018-Mar-30 02:30N 34°40' E 135°18'2 3.3
2018-Mar-30 02:01N 34°41' E 135°17'2 4.6
2018-Mar-30 01:30N 34°39' E 135°15'0 0.1
2018-Mar-30 01:01N 34°39' E 135°15'0 0.7
2018-Mar-30 00:30N 34°39' E 135°15'2 3.6
2018-Mar-30 00:01N 34°41' E 135°15'0 0.0
2018-Mar-29 23:30N 34°41' E 135°15'3 5.6
2018-Mar-29 23:00N 34°38' E 135°16'1 2.6
2018-Mar-29 22:31N 34°37' E 135°16'0 0.0
2018-Mar-29 22:00N 34°37' E 135°16'0 0.0
2018-Mar-29 21:30N 34°37' E 135°16'0 0.0
2018-Mar-29 21:00N 34°37' E 135°16'0 0.0
2018-Mar-29 20:30N 34°37' E 135°16'0 0.0
2018-Mar-29 20:00N 34°37' E 135°16'0 0.0
2018-Mar-29 19:30N 34°37' E 135°16'0 0.0
2018-Mar-29 19:00N 34°37' E 135°16'0 0.0
2018-Mar-29 18:30N 34°37' E 135°16'0 0.0
2018-Mar-29 18:00N 34°37' E 135°16'0 0.0
2018-Mar-29 17:30N 34°37' E 135°16'0 0.0
2018-Mar-29 17:00N 34°37' E 135°16'4 8.4
2018-Mar-29 16:30N 34°35' E 135°11'510.9
2018-Mar-29 16:00N 34°35' E 135°05'713.2
2018-Mar-29 15:30N 34°36' E 134°57'613.0
2018-Mar-29 15:00N 34°33' E 134°50'511.0
2018-Mar-29 14:30N 34°31' E 134°44'510.9
2018-Mar-29 14:00N 34°29' E 134°38'511.0
2018-Mar-29 13:30N 34°27' E 134°31'610.8
2018-Mar-29 13:00N 34°25' E 134°25'510.5
2018-Mar-29 12:30N 34°24' E 134°19'13 0.6
2018-Mar-28 16:19N 34°27' E 134°04'510.3
2018-Mar-28 15:52N 34°26' E 134°09'4 9.7
2018-Mar-28 15:30N 34°25' E 134°13'5 9.8
2018-Mar-28 15:00N 34°25' E 134°19'510.7
2018-Mar-28 14:30N 34°26' E 134°25'510.6
2018-Mar-28 14:01N 34°28' E 134°31'510.7
2018-Mar-28 13:30N 34°30' E 134°37'510.5
2018-Mar-28 13:01N 34°32' E 134°43'611.0
2018-Mar-28 12:30N 34°34' E 134°49'611.3
2018-Mar-28 12:00N 34°36' E 134°56'611.2
2018-Mar-28 11:30N 34°37' E 135°02'510.6
2018-Mar-28 11:00N 34°36' E 135°09'611.2
2018-Mar-28 10:30N 34°36' E 135°16'510.8
2018-Mar-28 10:00N 34°38' E 135°22'3 5.1
2018-Mar-28 09:30N 34°38' E 135°25'0 0.0
2018-Mar-28 09:00N 34°38' E 135°25'0 0.2
2018-Mar-28 08:30N 34°37' E 135°25'0 0.7
2018-Mar-28 08:00N 34°37' E 135°25'3 5.8
2018-Mar-28 07:30N 34°37' E 135°21'3 5.7
2018-Mar-28 07:00N 34°37' E 135°18'4 8.0
2018-Mar-28 06:30N 34°40' E 135°14'0 0.0
2018-Mar-28 06:00N 34°40' E 135°14'2 4.2
2018-Mar-28 05:30N 34°39' E 135°16'510.0
2018-Mar-28 05:00N 34°39' E 135°22'3 5.9
2018-Mar-28 04:30N 34°39' E 135°26'0 0.0
2018-Mar-28 04:00N 34°39' E 135°26'1 2.4
2018-Mar-28 03:30N 34°39' E 135°24'5 9.6
2018-Mar-28 03:00N 34°36' E 135°19'5 9.2
2018-Mar-28 02:30N 34°39' E 135°15'0 0.1
2018-Mar-28 02:00N 34°39' E 135°15'1 1.1
2018-Mar-28 01:30N 34°40' E 135°15'2 3.6
2018-Mar-28 01:00N 34°41' E 135°17'0 0.8
2018-Mar-28 00:30N 34°41' E 135°16'3 5.7
2018-Mar-28 00:00N 34°39' E 135°19'0 0.4
2018-Mar-27 23:27N 34°39' E 135°19'0 0.0
2018-Mar-27 23:00N 34°39' E 135°19'0 0.0
2018-Mar-27 22:30N 34°39' E 135°19'0 0.0
2018-Mar-27 22:00N 34°39' E 135°19'0 0.0
2018-Mar-27 21:30N 34°39' E 135°19'0 0.1
2018-Mar-27 21:00N 34°39' E 135°19'0 0.1
2018-Mar-27 20:30N 34°39' E 135°19'0 0.0
2018-Mar-27 20:00N 34°39' E 135°19'0 0.0
2018-Mar-27 19:30N 34°39' E 135°19'0 0.0
2018-Mar-27 19:00N 34°39' E 135°19'0 0.0
2018-Mar-27 18:30N 34°39' E 135°19'0 0.0
2018-Mar-27 18:00N 34°39' E 135°19'0 0.0
2018-Mar-27 17:30N 34°39' E 135°19'3 5.9
2018-Mar-27 17:00N 34°37' E 135°17'510.0
2018-Mar-27 16:30N 34°35' E 135°11'611.3
2018-Mar-27 16:00N 34°35' E 135°04'612.1
2018-Mar-27 15:30N 34°36' E 134°57'612.9
2018-Mar-27 15:01N 34°34' E 134°50'611.6
2018-Mar-27 14:31N 34°31' E 134°43'611.2
2018-Mar-27 14:00N 34°29' E 134°37'611.1
2018-Mar-27 13:30N 34°27' E 134°31'611.1
2018-Mar-27 12:58N 34°25' E 134°24'510.6
2018-Mar-27 12:30N 34°24' E 134°18'611.3
2018-Mar-27 12:00N 34°25' E 134°11'2 0.1
2018-Mar-26 12:29N 34°26' E 134°09'5 9.9
2018-Mar-26 12:00N 34°24' E 134°14'510.8
2018-Mar-26 11:30N 34°25' E 134°21'611.2
2018-Mar-26 11:00N 34°27' E 134°27'510.9
2018-Mar-26 10:30N 34°29' E 134°33'511.0
2018-Mar-26 10:00N 34°31' E 134°40'611.3
2018-Mar-26 09:30N 34°33' E 134°46'611.9
2018-Mar-26 09:00N 34°35' E 134°53'612.1
2018-Mar-26 08:30N 34°37' E 134°60'611.6
2018-Mar-26 08:00N 34°36' E 135°07'611.2
2018-Mar-26 07:30N 34°37' E 135°13'3 5.5
2018-Mar-26 07:01N 34°40' E 135°14'0 0.2
2018-Mar-26 06:30N 34°40' E 135°14'0 0.0
2018-Mar-26 06:00N 34°40' E 135°14'2 4.5
2018-Mar-26 05:30N 34°39' E 135°16'5 9.3
2018-Mar-26 05:00N 34°37' E 135°22'3 5.3
2018-Mar-26 04:30N 34°38' E 135°25'0 0.0
2018-Mar-26 04:00N 34°38' E 135°25'2 3.1
2018-Mar-26 03:31N 34°38' E 135°23'4 8.0
2018-Mar-26 03:00N 34°36' E 135°19'4 7.1
2018-Mar-26 02:30N 34°37' E 135°14'0 0.1
2018-Mar-26 01:58N 34°37' E 135°14'0 0.0
2018-Mar-26 01:28N 34°37' E 135°14'0 0.0
2018-Mar-26 00:58N 34°37' E 135°14'0 0.0
2018-Mar-26 00:28N 34°37' E 135°14'0 0.0
2018-Mar-25 23:58N 34°37' E 135°14'0 0.0
2018-Mar-25 23:28N 34°37' E 135°14'0 0.0
2018-Mar-25 23:00N 34°37' E 135°14'0 0.0
2018-Mar-25 22:30N 34°37' E 135°14'4 7.4
2018-Mar-25 21:59N 34°40' E 135°11'1 2.5
2018-Mar-25 21:30N 34°41' E 135°12'0 0.0
2018-Mar-25 21:00N 34°41' E 135°12'0 0.0
2018-Mar-25 20:30N 34°41' E 135°12'0 0.0
2018-Mar-25 20:00N 34°41' E 135°12'0 0.0
2018-Mar-25 19:30N 34°41' E 135°12'0 0.0
2018-Mar-25 19:00N 34°41' E 135°12'0 0.0
2018-Mar-25 18:30N 34°41' E 135°12'0 0.0
2018-Mar-25 18:00N 34°41' E 135°12'0 0.0
2018-Mar-25 17:30N 34°41' E 135°12'0 0.0
2018-Mar-25 16:57N 34°41' E 135°12'0 0.0
2018-Mar-25 16:30N 34°41' E 135°12'0 0.0
2018-Mar-25 16:00N 34°41' E 135°12'0 0.0
2018-Mar-25 15:30N 34°41' E 135°12'0 0.0
2018-Mar-25 15:00N 34°41' E 135°12'0 0.0
2018-Mar-25 14:30N 34°41' E 135°12'0 0.0
2018-Mar-25 14:00N 34°41' E 135°12'0 0.0
2018-Mar-25 13:30N 34°41' E 135°12'0 0.0
2018-Mar-25 13:00N 34°41' E 135°12'0 0.0
2018-Mar-25 12:30N 34°41' E 135°12'0 0.0
2018-Mar-25 12:00N 34°41' E 135°12'0 0.0
2018-Mar-25 11:30N 34°41' E 135°12'0 0.0
2018-Mar-25 11:00N 34°41' E 135°12'0 0.0
2018-Mar-25 10:30N 34°41' E 135°12'0 0.0
2018-Mar-25 10:00N 34°41' E 135°12'0 0.0
2018-Mar-25 09:30N 34°41' E 135°12'0 0.0
2018-Mar-25 09:00N 34°41' E 135°12'0 0.0
2018-Mar-25 08:30N 34°41' E 135°12'0 0.0
2018-Mar-25 08:00N 34°41' E 135°12'0 0.0
2018-Mar-25 07:30N 34°41' E 135°12'0 0.0
2018-Mar-25 07:00N 34°41' E 135°12'0 0.0
2018-Mar-25 06:30N 34°41' E 135°12'0 0.0
2018-Mar-25 06:00N 34°41' E 135°12'0 0.0
2018-Mar-25 05:30N 34°41' E 135°12'0 0.0
2018-Mar-25 05:00N 34°41' E 135°12'0 0.0
2018-Mar-25 04:30N 34°41' E 135°12'0 0.0
2018-Mar-25 04:00N 34°41' E 135°12'0 0.0
2018-Mar-25 03:30N 34°41' E 135°12'0 0.0
2018-Mar-25 03:00N 34°41' E 135°12'0 0.0
2018-Mar-25 02:30N 34°41' E 135°12'0 0.0
2018-Mar-25 02:00N 34°41' E 135°12'0 0.0
2018-Mar-25 01:30N 34°41' E 135°12'0 0.0
2018-Mar-25 01:00N 34°41' E 135°12'0 0.0
2018-Mar-25 00:30N 34°41' E 135°12'0 0.0
2018-Mar-25 00:00N 34°41' E 135°12'0 0.0
2018-Mar-24 23:30N 34°41' E 135°12'0 0.0
2018-Mar-24 23:00N 34°41' E 135°12'0 0.0
2018-Mar-24 22:30N 34°41' E 135°12'0 0.0
2018-Mar-24 22:00N 34°41' E 135°12'0 0.0
2018-Mar-24 21:30N 34°41' E 135°12'0 0.0
2018-Mar-24 21:00N 34°41' E 135°12'0 0.0
2018-Mar-24 20:30N 34°41' E 135°12'0 0.0
2018-Mar-24 20:00N 34°41' E 135°12'0 0.0
2018-Mar-24 19:30N 34°41' E 135°12'0 0.0
2018-Mar-24 19:00N 34°41' E 135°12'0 0.0
2018-Mar-24 18:30N 34°41' E 135°12'0 0.0
2018-Mar-24 18:00N 34°41' E 135°12'0 0.0
2018-Mar-24 17:30N 34°41' E 135°12'0 0.0
2018-Mar-24 17:00N 34°41' E 135°12'0 0.0
2018-Mar-24 16:30N 34°41' E 135°12'0 0.0
2018-Mar-24 16:00N 34°41' E 135°12'0 0.0
2018-Mar-24 15:30N 34°41' E 135°12'0 0.0
2018-Mar-24 15:00N 34°41' E 135°12'0 0.0
2018-Mar-24 14:30N 34°41' E 135°12'0 0.0
2018-Mar-24 14:00N 34°41' E 135°12'0 0.0
2018-Mar-24 13:30N 34°41' E 135°12'0 0.0
2018-Mar-24 13:00N 34°41' E 135°12'0 0.0
2018-Mar-24 12:30N 34°41' E 135°12'0 0.0
2018-Mar-24 12:00N 34°41' E 135°12'0 0.0
2018-Mar-24 11:30N 34°41' E 135°12'0 0.0
2018-Mar-24 11:00N 34°41' E 135°12'0 0.0
2018-Mar-24 10:30N 34°41' E 135°12'0 0.0
2018-Mar-24 10:00N 34°41' E 135°12'0 0.0
2018-Mar-24 09:30N 34°41' E 135°12'0 0.0
2018-Mar-24 09:00N 34°41' E 135°12'0 0.0
2018-Mar-24 08:27N 34°41' E 135°12'0 0.0
2018-Mar-24 08:00N 34°41' E 135°12'0 0.0
2018-Mar-24 07:30N 34°41' E 135°12'0 0.0
2018-Mar-24 07:00N 34°41' E 135°12'0 0.0
2018-Mar-24 06:30N 34°41' E 135°12'0 0.0
2018-Mar-24 06:00N 34°41' E 135°12'0 0.1
2018-Mar-24 05:30N 34°41' E 135°12'2 4.3
2018-Mar-24 05:00N 34°39' E 135°11'4 7.6
2018-Mar-24 04:30N 34°38' E 135°16'1 3.0
2018-Mar-24 04:00N 34°39' E 135°15'0 0.0
2018-Mar-24 03:31N 34°39' E 135°15'0 0.0
2018-Mar-24 03:01N 34°39' E 135°15'0 0.0
2018-Mar-24 02:30N 34°39' E 135°15'0 0.0
2018-Mar-24 02:00N 34°39' E 135°15'3 6.2
2018-Mar-24 01:31N 34°38' E 135°18'510.5
2018-Mar-24 01:01N 34°39' E 135°24'2 3.7
2018-Mar-24 00:30N 34°38' E 135°26'0 0.0
2018-Mar-24 00:00N 34°38' E 135°26'0 0.0
2018-Mar-23 23:30N 34°38' E 135°26'1 1.1
2018-Mar-23 23:00N 34°39' E 135°26'4 7.4
2018-Mar-23 22:31N 34°37' E 135°22'3 5.5
2018-Mar-23 22:00N 34°36' E 135°19'3 6.2
2018-Mar-23 21:30N 34°39' E 135°16'4 7.8
2018-Mar-23 21:00N 34°41' E 135°12'0 0.0
2018-Mar-23 20:30N 34°41' E 135°12'0 0.0
2018-Mar-23 20:00N 34°41' E 135°12'0 0.0
2018-Mar-23 19:30N 34°41' E 135°12'0 0.0
2018-Mar-23 19:00N 34°41' E 135°12'0 0.0
2018-Mar-23 18:30N 34°41' E 135°12'0 0.0
2018-Mar-23 18:00N 34°41' E 135°12'0 0.0
2018-Mar-23 17:30N 34°41' E 135°12'0 0.0
2018-Mar-23 17:00N 34°41' E 135°12'0 0.0
2018-Mar-23 16:30N 34°41' E 135°12'0 0.0
2018-Mar-23 16:00N 34°41' E 135°12'0 0.0
2018-Mar-23 15:30N 34°41' E 135°12'0 0.0
2018-Mar-23 15:00N 34°41' E 135°12'0 0.0
2018-Mar-23 14:30N 34°41' E 135°12'0 0.0
2018-Mar-23 14:00N 34°41' E 135°12'0 0.0
2018-Mar-23 13:30N 34°41' E 135°12'0 0.0
2018-Mar-23 13:00N 34°41' E 135°12'0 0.0
2018-Mar-23 12:30N 34°41' E 135°12'0 0.0
2018-Mar-23 12:00N 34°41' E 135°12'0 0.0
2018-Mar-23 11:30N 34°41' E 135°12'0 0.0
2018-Mar-23 11:00N 34°41' E 135°12'0 0.0
2018-Mar-23 10:30N 34°41' E 135°12'0 0.0
2018-Mar-23 10:00N 34°41' E 135°12'0 0.0
2018-Mar-23 09:30N 34°41' E 135°12'0 0.0
2018-Mar-23 09:00N 34°41' E 135°12'0 0.0
2018-Mar-23 08:30N 34°41' E 135°12'0 0.0
2018-Mar-23 08:00N 34°41' E 135°12'0 0.0
2018-Mar-23 07:30N 34°41' E 135°12'0 0.0
2018-Mar-23 07:00N 34°41' E 135°12'0 0.0
2018-Mar-23 06:30N 34°41' E 135°12'0 0.0
2018-Mar-23 06:00N 34°41' E 135°12'0 0.0
2018-Mar-23 05:30N 34°41' E 135°12'0 0.0
2018-Mar-23 05:00N 34°41' E 135°12'0 0.0
2018-Mar-23 04:30N 34°41' E 135°12'0 0.4
2018-Mar-23 04:00N 34°41' E 135°13'4 8.8
2018-Mar-23 03:30N 34°38' E 135°17'1 1.1
2018-Mar-23 02:58N 34°37' E 135°17'0 0.2
2018-Mar-23 02:30N 34°37' E 135°16'3 5.2
2018-Mar-23 02:00N 34°40' E 135°18'2 3.2
2018-Mar-23 01:30N 34°41' E 135°17'2 4.8
2018-Mar-23 01:00N 34°39' E 135°15'0 0.0
2018-Mar-23 00:30N 34°39' E 135°15'0 0.2
2018-Mar-23 00:00N 34°39' E 135°15'2 3.0
2018-Mar-22 23:30N 34°38' E 135°16'1 2.0
2018-Mar-22 23:00N 34°37' E 135°16'0 0.0
2018-Mar-22 22:30N 34°37' E 135°16'0 0.0
2018-Mar-22 22:00N 34°37' E 135°16'0 0.0
2018-Mar-22 21:30N 34°37' E 135°16'0 0.0
2018-Mar-22 21:00N 34°37' E 135°16'0 0.0
2018-Mar-22 20:30N 34°37' E 135°16'0 0.0
2018-Mar-22 20:00N 34°37' E 135°16'0 0.0
2018-Mar-22 19:30N 34°37' E 135°16'0 0.0
2018-Mar-22 19:00N 34°37' E 135°16'0 0.0
2018-Mar-22 18:30N 34°37' E 135°16'0 0.0
2018-Mar-22 18:00N 34°37' E 135°16'0 0.0
2018-Mar-22 17:30N 34°37' E 135°16'0 0.0
2018-Mar-22 17:00N 34°37' E 135°16'0 0.1
2018-Mar-22 16:30N 34°37' E 135°16'3 5.8
2018-Mar-22 16:00N 34°35' E 135°13'510.7
2018-Mar-22 15:30N 34°35' E 135°06'4 8.5
2018-Mar-22 15:00N 34°37' E 135°02'4 7.3
2018-Mar-22 14:30N 34°36' E 134°57'4 8.3
2018-Mar-22 14:00N 34°35' E 134°53'4 8.6
2018-Mar-22 13:30N 34°33' E 134°48'510.1
2018-Mar-22 13:00N 34°31' E 134°42'510.4
2018-Mar-22 12:31N 34°29' E 134°36'510.6
2018-Mar-22 12:00N 34°27' E 134°30'610.8
2018-Mar-22 11:29N 34°25' E 134°24'13 0.6
2018-Mar-21 14:04N 34°26' E 134°09'412.7
2018-Mar-21 13:46N 34°24' E 134°13'312.2
2018-Mar-21 13:29N 34°24' E 134°17'611.8
2018-Mar-21 13:00N 34°26' E 134°24'611.4
2018-Mar-21 12:30N 34°28' E 134°30'611.3
2018-Mar-21 12:00N 34°30' E 134°37'611.6
2018-Mar-21 11:30N 34°32' E 134°43'611.6
2018-Mar-21 11:00N 34°34' E 134°50'611.5
2018-Mar-21 10:30N 34°36' E 134°56'5 9.3
2018-Mar-21 10:00N 34°37' E 135°02'510.5
2018-Mar-21 09:30N 34°37' E 135°08'511.2
2018-Mar-21 09:00N 34°38' E 135°15'2 4.9
2018-Mar-21 08:30N 34°40' E 135°14'0 0.0
2018-Mar-21 08:00N 34°40' E 135°14'0 0.2
2018-Mar-21 07:30N 34°40' E 135°14'4 7.0
2018-Mar-21 07:00N 34°38' E 135°18'5 9.8
2018-Mar-21 06:30N 34°38' E 135°23'1 2.4
2018-Mar-21 06:00N 34°38' E 135°25'0 0.0
2018-Mar-21 05:30N 34°38' E 135°25'2 4.5
2018-Mar-21 05:00N 34°38' E 135°22'4 7.2
2018-Mar-21 04:30N 34°37' E 135°18'3 6.2
2018-Mar-21 04:00N 34°39' E 135°15'0 0.0
2018-Mar-21 03:30N 34°39' E 135°15'0 0.0
2018-Mar-21 03:00N 34°39' E 135°15'0 0.0
2018-Mar-21 02:30N 34°39' E 135°15'0 0.7
2018-Mar-21 02:00N 34°39' E 135°15'2 4.0
2018-Mar-21 01:30N 34°41' E 135°17'0 0.0
2018-Mar-21 01:00N 34°41' E 135°17'0 0.9
2018-Mar-21 00:30N 34°41' E 135°16'2 3.5
2018-Mar-21 00:00N 34°40' E 135°14'0 0.0
2018-Mar-20 23:29N 34°40' E 135°14'1 3.1
2018-Mar-20 23:00N 34°39' E 135°16'2 3.3
2018-Mar-20 22:29N 34°37' E 135°16'  

Dump ship's entire track history